Rehoboth Beach, DE (19971)

7:16 PM EDT on September 02, 2015 (GMT -0400)
Funland and the Boardwalk | | Change Station
CLOSE
Current Station
Personal Weather Station
Location: Rehoboth Beach, DE
Elevation: 33 ft
Nearby Weather Stations

Elev 33 ft 38.71 °N, 75.08 °W | Updated 1 minute ago

Partly Cloudy
Partly Cloudy
78.3 °F
Feels Like 81 °F
N
2.0
Wind Variable Wind from South
Gusts 4.0 mph

Today
High -- | Low -- °F
--% Chance of Precip.
Yesterday
High -- | Low -- °F
Precip. -- in
6:30 AM 7:29 PM
Waning Gibbous, 76% visible
Pressure 29.92 in
Visibility 9.0 miles
Clouds Clear
Heat Index 81 °F
Dew Point 73 °F
Humidity 84%
Rainfall 0.00 in
Snow Depth Not available.
UV 0.0 out of 12
Pollen 9.80 out of 12
Air Quality Not available.
Flu Activity Not available.
METAR KGED 022254Z AUTO 16004KT 9SM CLR 28/21 A2992 RMK AO2 SLP132 T02830211
Pressure 29.92 in
Visibility 9.0 miles
Clouds Clear
Heat Index 81 °F
Dew Point 73 °F
Humidity 84%
Rainfall 0.00 in
Snow Depth Not available.
UV 0.0 out of 12
Pollen 9.80 out of 12
Air Quality Not available.
Flu Activity Not available.
METAR KGED 022254Z AUTO 16004KT 9SM CLR 28/21 A2992 RMK AO2 SLP132 T02830211

10-Day Weather Forecast

×

Almanac

Astronomy

Sep. 02, 2015 Rise Set
Actual Time
Civil Twilight
Nautical Twilight
Astronomical Twilight
Moon
Length of Visible Light
Length of Day
Tomorrow will be .
, % of the Moon is Illuminated

Today's Extremes

State Highs State Lows

Community

WunderPhotos

Upload Photos

1,851,823 photos uploaded!

WunderBlogs® & News

Nearby

Air Quality

  Air Quality AQ Index Pollutant
Not available.

Snow Depth

Station Depth Elevation

Earthquake Activity

City Distance Mag. Time & Date
Minimum magnitude displayed is 2.5.

Coastal Water Temperatures

Place Temperature

Stations

Nearby Weather Stations

Station Location Temp. Windchill Dew Point Humidity Wind Precip. Elev Updated Type